sensor_id;sensor_type;location;lat;lon;timestamp;P1;durP1;ratioP1;P2;durP2;ratioP2
47021;SDS011;32779;52.264;6.154;2023-03-23T00:02:24;11.65;;;5.05;;
47021;SDS011;32779;52.264;6.154;2023-03-23T00:04:51;7.95;;;4.05;;
47021;SDS011;32779;52.264;6.154;2023-03-23T00:07:18;8.57;;;4.18;;
47021;SDS011;32779;52.264;6.154;2023-03-23T00:09:49;8.20;;;4.47;;
47021;SDS011;32779;52.264;6.154;2023-03-23T00:12:22;8.02;;;4.43;;
47021;SDS011;32779;52.264;6.154;2023-03-23T00:15:07;9.00;;;4.43;;
47021;SDS011;32779;52.264;6.154;2023-03-23T00:17:37;8.00;;;4.13;;
47021;SDS011;32779;52.264;6.154;2023-03-23T00:20:03;10.23;;;4.22;;
47021;SDS011;32779;52.264;6.154;2023-03-23T00:22:30;9.52;;;4.35;;
47021;SDS011;32779;52.264;6.154;2023-03-23T00:25:02;7.35;;;4.13;;
47021;SDS011;32779;52.264;6.154;2023-03-23T00:27:31;6.63;;;3.42;;
47021;SDS011;32779;52.264;6.154;2023-03-23T00:29:56;7.80;;;4.30;;
47021;SDS011;32779;52.264;6.154;2023-03-23T00:32:23;8.55;;;4.13;;
47021;SDS011;32779;52.264;6.154;2023-03-23T00:34:55;8.95;;;4.38;;
47021;SDS011;32779;52.264;6.154;2023-03-23T00:37:25;7.63;;;3.60;;
47021;SDS011;32779;52.264;6.154;2023-03-23T00:39:51;7.38;;;3.58;;
47021;SDS011;32779;52.264;6.154;2023-03-23T00:42:22;6.57;;;4.07;;
47021;SDS011;32779;52.264;6.154;2023-03-23T00:47:14;7.93;;;4.15;;
47021;SDS011;32779;52.264;6.154;2023-03-23T00:49:42;7.38;;;3.75;;
47021;SDS011;32779;52.264;6.154;2023-03-23T00:52:09;8.63;;;3.72;;
47021;SDS011;32779;52.264;6.154;2023-03-23T00:54:35;8.10;;;3.72;;
47021;SDS011;32779;52.264;6.154;2023-03-23T00:57:02;11.68;;;4.28;;
47021;SDS011;32779;52.264;6.154;2023-03-23T00:59:28;11.32;;;3.70;;
47021;SDS011;32779;52.264;6.154;2023-03-23T01:01:54;7.90;;;4.10;;
47021;SDS011;32779;52.264;6.154;2023-03-23T01:04:19;7.15;;;3.72;;
47021;SDS011;32779;52.264;6.154;2023-03-23T01:06:47;7.07;;;4.03;;
47021;SDS011;32779;52.264;6.154;2023-03-23T01:09:16;12.32;;;4.25;;
47021;SDS011;32779;52.264;6.154;2023-03-23T01:11:42;7.57;;;4.25;;
47021;SDS011;32779;52.264;6.154;2023-03-23T01:14:09;9.35;;;4.07;;
47021;SDS011;32779;52.264;6.154;2023-03-23T01:16:35;10.90;;;3.70;;
47021;SDS011;32779;52.264;6.154;2023-03-23T01:19:01;9.02;;;3.65;;
47021;SDS011;32779;52.264;6.154;2023-03-23T01:23:53;6.85;;;3.67;;
47021;SDS011;32779;52.264;6.154;2023-03-23T01:26:20;10.50;;;4.15;;
47021;SDS011;32779;52.264;6.154;2023-03-23T01:28:47;11.27;;;4.25;;
47021;SDS011;32779;52.264;6.154;2023-03-23T01:31:16;7.40;;;3.90;;
47021;SDS011;32779;52.264;6.154;2023-03-23T01:33:46;9.27;;;3.85;;
47021;SDS011;32779;52.264;6.154;2023-03-23T01:36:13;8.25;;;3.38;;
47021;SDS011;32779;52.264;6.154;2023-03-23T01:38:41;6.15;;;3.35;;
47021;SDS011;32779;52.264;6.154;2023-03-23T01:41:09;7.63;;;3.58;;
47021;SDS011;32779;52.264;6.154;2023-03-23T01:43:35;7.25;;;3.80;;
47021;SDS011;32779;52.264;6.154;2023-03-23T01:46:01;9.77;;;3.67;;
47021;SDS011;32779;52.264;6.154;2023-03-23T01:48:33;6.00;;;3.40;;
47021;SDS011;32779;52.264;6.154;2023-03-23T01:51:06;9.02;;;3.83;;
47021;SDS011;32779;52.264;6.154;2023-03-23T01:53:37;8.98;;;3.70;;
47021;SDS011;32779;52.264;6.154;2023-03-23T01:56:06;5.28;;;3.25;;
47021;SDS011;32779;52.264;6.154;2023-03-23T01:58:34;8.25;;;3.30;;
47021;SDS011;32779;52.264;6.154;2023-03-23T02:01:03;7.85;;;3.53;;
47021;SDS011;32779;52.264;6.154;2023-03-23T02:03:33;8.98;;;3.50;;
47021;SDS011;32779;52.264;6.154;2023-03-23T02:06:01;9.07;;;3.85;;
47021;SDS011;32779;52.264;6.154;2023-03-23T02:08:27;4.93;;;3.10;;
47021;SDS011;32779;52.264;6.154;2023-03-23T02:10:57;5.20;;;3.70;;
47021;SDS011;32779;52.264;6.154;2023-03-23T02:13:23;9.02;;;2.92;;
47021;SDS011;32779;52.264;6.154;2023-03-23T02:18:51;5.65;;;3.75;;
47021;SDS011;32779;52.264;6.154;2023-03-23T02:21:44;6.87;;;3.60;;
47021;SDS011;32779;52.264;6.154;2023-03-23T02:41:51;7.25;;;3.47;;
47021;SDS011;32779;52.264;6.154;2023-03-23T02:44:23;5.45;;;3.30;;
47021;SDS011;32779;52.264;6.154;2023-03-23T02:46:54;5.72;;;3.00;;
47021;SDS011;32779;52.264;6.154;2023-03-23T02:49:22;6.28;;;3.38;;
47021;SDS011;32779;52.264;6.154;2023-03-23T02:51:50;6.88;;;3.65;;
47021;SDS011;32779;52.264;6.154;2023-03-23T02:54:17;6.43;;;3.17;;
47021;SDS011;32779;52.264;6.154;2023-03-23T02:56:45;8.60;;;3.42;;
47021;SDS011;32779;52.264;6.154;2023-03-23T02:59:12;6.88;;;3.88;;
47021;SDS011;32779;52.264;6.154;2023-03-23T03:04:07;5.18;;;3.50;;
47021;SDS011;32779;52.264;6.154;2023-03-23T03:06:49;8.80;;;3.60;;
47021;SDS011;32779;52.264;6.154;2023-03-23T03:09:26;6.78;;;3.97;;
47021;SDS011;32779;52.264;6.154;2023-03-23T03:12:12;5.65;;;3.90;;
47021;SDS011;32779;52.264;6.154;2023-03-23T03:14:48;9.05;;;3.92;;
47021;SDS011;32779;52.264;6.154;2023-03-23T03:17:23;6.07;;;3.75;;
47021;SDS011;32779;52.264;6.154;2023-03-23T03:19:50;6.50;;;3.30;;
47021;SDS011;32779;52.264;6.154;2023-03-23T03:22:21;8.35;;;4.10;;
47021;SDS011;32779;52.264;6.154;2023-03-23T03:24:48;4.00;;;3.58;;
47021;SDS011;32779;52.264;6.154;2023-03-23T03:27:16;5.55;;;3.85;;
47021;SDS011;32779;52.264;6.154;2023-03-23T03:29:45;6.38;;;4.57;;
47021;SDS011;32779;52.264;6.154;2023-03-23T03:32:17;8.25;;;3.90;;
47021;SDS011;32779;52.264;6.154;2023-03-23T03:34:46;8.45;;;3.80;;
47021;SDS011;32779;52.264;6.154;2023-03-23T03:37:12;6.15;;;4.18;;
47021;SDS011;32779;52.264;6.154;2023-03-23T03:39:38;8.30;;;3.85;;
47021;SDS011;32779;52.264;6.154;2023-03-23T03:42:07;5.50;;;3.83;;
47021;SDS011;32779;52.264;6.154;2023-03-23T03:44:33;5.75;;;3.83;;
47021;SDS011;32779;52.264;6.154;2023-03-23T03:49:24;7.22;;;4.18;;
47021;SDS011;32779;52.264;6.154;2023-03-23T03:51:51;4.82;;;3.40;;
47021;SDS011;32779;52.264;6.154;2023-03-23T03:54:16;6.75;;;3.70;;
47021;SDS011;32779;52.264;6.154;2023-03-23T03:56:42;5.25;;;3.28;;
47021;SDS011;32779;52.264;6.154;2023-03-23T03:59:08;6.47;;;4.57;;
47021;SDS011;32779;52.264;6.154;2023-03-23T04:01:37;10.30;;;3.97;;
47021;SDS011;32779;52.264;6.154;2023-03-23T04:04:03;7.10;;;3.13;;
47021;SDS011;32779;52.264;6.154;2023-03-23T04:06:31;9.13;;;3.30;;
47021;SDS011;32779;52.264;6.154;2023-03-23T04:08:58;6.10;;;3.40;;
47021;SDS011;32779;52.264;6.154;2023-03-23T04:11:24;6.00;;;3.60;;
47021;SDS011;32779;52.264;6.154;2023-03-23T04:13:51;6.50;;;3.53;;
47021;SDS011;32779;52.264;6.154;2023-03-23T04:16:16;7.05;;;3.60;;
47021;SDS011;32779;52.264;6.154;2023-03-23T04:18:42;4.53;;;2.75;;
47021;SDS011;32779;52.264;6.154;2023-03-23T04:21:08;11.65;;;3.10;;
47021;SDS011;32779;52.264;6.154;2023-03-23T04:23:34;7.18;;;3.08;;
47021;SDS011;32779;52.264;6.154;2023-03-23T04:26:01;5.90;;;2.80;;
47021;SDS011;32779;52.264;6.154;2023-03-23T04:28:28;8.50;;;3.33;;
47021;SDS011;32779;52.264;6.154;2023-03-23T04:30:54;6.13;;;2.90;;
47021;SDS011;32779;52.264;6.154;2023-03-23T04:33:24;7.13;;;2.75;;
47021;SDS011;32779;52.264;6.154;2023-03-23T04:35:52;6.20;;;2.85;;
47021;SDS011;32779;52.264;6.154;2023-03-23T04:38:18;7.40;;;2.92;;
47021;SDS011;32779;52.264;6.154;2023-03-23T04:40:46;7.93;;;3.40;;
47021;SDS011;32779;52.264;6.154;2023-03-23T04:43:13;6.82;;;3.70;;
47021;SDS011;32779;52.264;6.154;2023-03-23T04:45:40;5.47;;;2.92;;
47021;SDS011;32779;52.264;6.154;2023-03-23T04:48:10;4.93;;;3.08;;
47021;SDS011;32779;52.264;6.154;2023-03-23T04:53:03;7.30;;;3.83;;
47021;SDS011;32779;52.264;6.154;2023-03-23T04:55:29;5.22;;;3.15;;
47021;SDS011;32779;52.264;6.154;2023-03-23T04:57:57;7.20;;;3.10;;
47021;SDS011;32779;52.264;6.154;2023-03-23T05:00:26;8.98;;;3.35;;
47021;SDS011;32779;52.264;6.154;2023-03-23T05:02:52;6.35;;;2.92;;
47021;SDS011;32779;52.264;6.154;2023-03-23T05:05:20;5.22;;;2.92;;
47021;SDS011;32779;52.264;6.154;2023-03-23T05:07:47;7.57;;;3.35;;
47021;SDS011;32779;52.264;6.154;2023-03-23T05:10:13;7.85;;;3.15;;
47021;SDS011;32779;52.264;6.154;2023-03-23T05:12:40;8.75;;;2.75;;
47021;SDS011;32779;52.264;6.154;2023-03-23T05:15:06;8.63;;;3.17;;
47021;SDS011;32779;52.264;6.154;2023-03-23T05:17:33;5.63;;;2.88;;
47021;SDS011;32779;52.264;6.154;2023-03-23T05:19:59;6.45;;;2.63;;
47021;SDS011;32779;52.264;6.154;2023-03-23T05:22:28;10.77;;;4.10;;
47021;SDS011;32779;52.264;6.154;2023-03-23T05:24:57;6.97;;;2.60;;
47021;SDS011;32779;52.264;6.154;2023-03-23T05:27:23;7.88;;;2.75;;
47021;SDS011;32779;52.264;6.154;2023-03-23T05:29:49;6.70;;;2.67;;
47021;SDS011;32779;52.264;6.154;2023-03-23T05:32:17;6.07;;;2.55;;
47021;SDS011;32779;52.264;6.154;2023-03-23T05:34:45;4.63;;;2.20;;
47021;SDS011;32779;52.264;6.154;2023-03-23T05:37:11;10.57;;;2.47;;
47021;SDS011;32779;52.264;6.154;2023-03-23T05:39:38;6.45;;;2.15;;
47021;SDS011;32779;52.264;6.154;2023-03-23T05:44:31;12.80;;;2.83;;
47021;SDS011;32779;52.264;6.154;2023-03-23T05:46:56;11.50;;;2.58;;
47021;SDS011;32779;52.264;6.154;2023-03-23T05:49:22;9.40;;;2.60;;
47021;SDS011;32779;52.264;6.154;2023-03-23T05:51:49;10.68;;;2.42;;
47021;SDS011;32779;52.264;6.154;2023-03-23T05:54:15;9.13;;;2.47;;
47021;SDS011;32779;52.264;6.154;2023-03-23T05:59:06;9.85;;;2.17;;
47021;SDS011;32779;52.264;6.154;2023-03-23T06:01:33;8.45;;;2.63;;
47021;SDS011;32779;52.264;6.154;2023-03-23T06:03:58;8.88;;;2.55;;
47021;SDS011;32779;52.264;6.154;2023-03-23T06:06:24;11.07;;;2.95;;
47021;SDS011;32779;52.264;6.154;2023-03-23T06:08:51;9.70;;;2.47;;
47021;SDS011;32779;52.264;6.154;2023-03-23T06:11:17;8.05;;;2.72;;
47021;SDS011;32779;52.264;6.154;2023-03-23T06:13:43;6.32;;;2.25;;
47021;SDS011;32779;52.264;6.154;2023-03-23T06:16:09;12.68;;;2.78;;
47021;SDS011;32779;52.264;6.154;2023-03-23T06:18:35;7.20;;;2.90;;
47021;SDS011;32779;52.264;6.154;2023-03-23T06:21:02;6.20;;;2.35;;
47021;SDS011;32779;52.264;6.154;2023-03-23T06:23:28;12.52;;;3.35;;
47021;SDS011;32779;52.264;6.154;2023-03-23T06:25:58;8.60;;;1.90;;
47021;SDS011;32779;52.264;6.154;2023-03-23T06:28:25;9.55;;;2.22;;
47021;SDS011;32779;52.264;6.154;2023-03-23T06:30:51;13.88;;;2.53;;
47021;SDS011;32779;52.264;6.154;2023-03-23T06:33:17;18.65;;;2.60;;
47021;SDS011;32779;52.264;6.154;2023-03-23T06:35:43;12.02;;;2.17;;
47021;SDS011;32779;52.264;6.154;2023-03-23T06:38:09;8.60;;;1.95;;
47021;SDS011;32779;52.264;6.154;2023-03-23T06:40:36;10.43;;;2.00;;
47021;SDS011;32779;52.264;6.154;2023-03-23T06:43:02;10.70;;;2.20;;
47021;SDS011;32779;52.264;6.154;2023-03-23T06:45:28;9.95;;;2.25;;
47021;SDS011;32779;52.264;6.154;2023-03-23T06:47:55;6.68;;;1.60;;
47021;SDS011;32779;52.264;6.154;2023-03-23T06:50:21;12.98;;;2.42;;
47021;SDS011;32779;52.264;6.154;2023-03-23T06:52:47;6.85;;;1.60;;
47021;SDS011;32779;52.264;6.154;2023-03-23T06:55:14;9.50;;;2.22;;
47021;SDS011;32779;52.264;6.154;2023-03-23T06:57:40;9.10;;;2.28;;
47021;SDS011;32779;52.264;6.154;2023-03-23T07:00:07;12.35;;;2.58;;
47021;SDS011;32779;52.264;6.154;2023-03-23T07:02:36;6.63;;;1.63;;
47021;SDS011;32779;52.264;6.154;2023-03-23T07:05:01;6.18;;;1.30;;
47021;SDS011;32779;52.264;6.154;2023-03-23T07:07:28;8.38;;;2.03;;
47021;SDS011;32779;52.264;6.154;2023-03-23T07:09:54;6.03;;;1.50;;
47021;SDS011;32779;52.264;6.154;2023-03-23T07:12:20;4.40;;;1.30;;
47021;SDS011;32779;52.264;6.154;2023-03-23T07:14:46;6.25;;;1.30;;
47021;SDS011;32779;52.264;6.154;2023-03-23T07:17:12;7.53;;;1.75;;
47021;SDS011;32779;52.264;6.154;2023-03-23T07:19:38;6.05;;;2.10;;
47021;SDS011;32779;52.264;6.154;2023-03-23T07:22:05;14.63;;;2.10;;
47021;SDS011;32779;52.264;6.154;2023-03-23T07:24:32;10.52;;;2.70;;
47021;SDS011;32779;52.264;6.154;2023-03-23T07:26:58;11.50;;;2.95;;
47021;SDS011;32779;52.264;6.154;2023-03-23T07:29:25;8.13;;;2.72;;
47021;SDS011;32779;52.264;6.154;2023-03-23T07:31:51;10.60;;;2.92;;
47021;SDS011;32779;52.264;6.154;2023-03-23T07:34:18;10.77;;;2.65;;
47021;SDS011;32779;52.264;6.154;2023-03-23T07:36:44;13.80;;;2.92;;
47021;SDS011;32779;52.264;6.154;2023-03-23T07:41:37;11.60;;;3.13;;
47021;SDS011;32779;52.264;6.154;2023-03-23T07:44:02;14.52;;;3.40;;
47021;SDS011;32779;52.264;6.154;2023-03-23T07:46:28;12.82;;;2.83;;
47021;SDS011;32779;52.264;6.154;2023-03-23T07:48:54;11.52;;;2.88;;
47021;SDS011;32779;52.264;6.154;2023-03-23T07:51:21;10.23;;;3.22;;
47021;SDS011;32779;52.264;6.154;2023-03-23T07:56:13;14.93;;;3.30;;
47021;SDS011;32779;52.264;6.154;2023-03-23T07:58:44;13.50;;;2.97;;
47021;SDS011;32779;52.264;6.154;2023-03-23T08:01:10;12.95;;;3.28;;
47021;SDS011;32779;52.264;6.154;2023-03-23T08:03:37;10.90;;;2.67;;
47021;SDS011;32779;52.264;6.154;2023-03-23T08:06:03;11.45;;;2.97;;
47021;SDS011;32779;52.264;6.154;2023-03-23T08:08:30;8.10;;;2.45;;
47021;SDS011;32779;52.264;6.154;2023-03-23T08:10:56;15.25;;;2.17;;
47021;SDS011;32779;52.264;6.154;2023-03-23T08:13:22;13.75;;;2.65;;
47021;SDS011;32779;52.264;6.154;2023-03-23T08:15:48;10.60;;;2.17;;
47021;SDS011;32779;52.264;6.154;2023-03-23T08:18:14;11.63;;;2.22;;
47021;SDS011;32779;52.264;6.154;2023-03-23T08:20:40;12.07;;;2.25;;
47021;SDS011;32779;52.264;6.154;2023-03-23T08:23:06;9.13;;;2.40;;
47021;SDS011;32779;52.264;6.154;2023-03-23T08:25:32;10.52;;;2.20;;
47021;SDS011;32779;52.264;6.154;2023-03-23T08:30:26;8.27;;;1.67;;
47021;SDS011;32779;52.264;6.154;2023-03-23T08:32:54;9.65;;;1.83;;
47021;SDS011;32779;52.264;6.154;2023-03-23T08:35:21;8.43;;;1.98;;
47021;SDS011;32779;52.264;6.154;2023-03-23T08:37:47;9.50;;;2.08;;
47021;SDS011;32779;52.264;6.154;2023-03-23T08:40:16;7.45;;;1.85;;
47021;SDS011;32779;52.264;6.154;2023-03-23T08:42:44;7.63;;;2.10;;
47021;SDS011;32779;52.264;6.154;2023-03-23T08:47:38;9.20;;;2.33;;
47021;SDS011;32779;52.264;6.154;2023-03-23T08:50:04;14.10;;;1.98;;
47021;SDS011;32779;52.264;6.154;2023-03-23T08:52:31;8.75;;;1.70;;
47021;SDS011;32779;52.264;6.154;2023-03-23T08:57:23;10.95;;;2.30;;
47021;SDS011;32779;52.264;6.154;2023-03-23T08:59:50;10.10;;;2.20;;
47021;SDS011;32779;52.264;6.154;2023-03-23T09:02:16;9.57;;;2.35;;
47021;SDS011;32779;52.264;6.154;2023-03-23T09:07:08;11.27;;;2.30;;
47021;SDS011;32779;52.264;6.154;2023-03-23T09:09:36;10.30;;;2.53;;
47021;SDS011;32779;52.264;6.154;2023-03-23T09:12:02;9.48;;;2.08;;
47021;SDS011;32779;52.264;6.154;2023-03-23T09:14:28;7.65;;;1.98;;
47021;SDS011;32779;52.264;6.154;2023-03-23T09:16:53;7.60;;;2.05;;
47021;SDS011;32779;52.264;6.154;2023-03-23T09:19:19;7.93;;;2.65;;
47021;SDS011;32779;52.264;6.154;2023-03-23T09:24:11;12.15;;;2.15;;
47021;SDS011;32779;52.264;6.154;2023-03-23T09:26:37;8.45;;;2.38;;
47021;SDS011;32779;52.264;6.154;2023-03-23T09:29:02;7.88;;;2.10;;
47021;SDS011;32779;52.264;6.154;2023-03-23T09:31:28;9.02;;;2.38;;
47021;SDS011;32779;52.264;6.154;2023-03-23T09:33:56;7.53;;;2.15;;
47021;SDS011;32779;52.264;6.154;2023-03-23T09:36:23;7.88;;;2.78;;
47021;SDS011;32779;52.264;6.154;2023-03-23T09:38:50;9.30;;;2.38;;
47021;SDS011;32779;52.264;6.154;2023-03-23T09:44:08;10.02;;;3.10;;
47021;SDS011;32779;52.264;6.154;2023-03-23T09:49:46;8.68;;;2.38;;
47021;SDS011;32779;52.264;6.154;2023-03-23T09:52:18;9.73;;;2.28;;
47021;SDS011;32779;52.264;6.154;2023-03-23T09:54:48;10.85;;;2.38;;
47021;SDS011;32779;52.264;6.154;2023-03-23T09:57:19;10.05;;;2.00;;
47021;SDS011;32779;52.264;6.154;2023-03-23T09:59:51;11.75;;;2.22;;
47021;SDS011;32779;52.264;6.154;2023-03-23T10:02:27;11.32;;;2.30;;
47021;SDS011;32779;52.264;6.154;2023-03-23T10:05:00;9.25;;;2.45;;
47021;SDS011;32779;52.264;6.154;2023-03-23T10:07:41;10.38;;;2.60;;
47021;SDS011;32779;52.264;6.154;2023-03-23T10:10:08;8.68;;;2.00;;
47021;SDS011;32779;52.264;6.154;2023-03-23T10:26:08;12.52;;;2.65;;
47021;SDS011;32779;52.264;6.154;2023-03-23T10:28:41;9.73;;;2.00;;
47021;SDS011;32779;52.264;6.154;2023-03-23T10:31:10;12.13;;;2.25;;
47021;SDS011;32779;52.264;6.154;2023-03-23T10:33:51;15.27;;;3.15;;
47021;SDS011;32779;52.264;6.154;2023-03-23T10:36:28;14.07;;;2.38;;
47021;SDS011;32779;52.264;6.154;2023-03-23T10:38:58;9.20;;;2.30;;
47021;SDS011;32779;52.264;6.154;2023-03-23T10:41:32;10.10;;;2.15;;
47021;SDS011;32779;52.264;6.154;2023-03-23T10:48:59;14.82;;;3.30;;
47021;SDS011;32779;52.264;6.154;2023-03-23T10:51:32;9.90;;;2.63;;
47021;SDS011;32779;52.264;6.154;2023-03-23T10:54:02;11.85;;;2.47;;
47021;SDS011;32779;52.264;6.154;2023-03-23T10:56:36;11.95;;;2.35;;
47021;SDS011;32779;52.264;6.154;2023-03-23T10:59:13;11.05;;;2.15;;
47021;SDS011;32779;52.264;6.154;2023-03-23T11:02:01;11.27;;;2.33;;
47021;SDS011;32779;52.264;6.154;2023-03-23T11:04:35;9.60;;;2.05;;
47021;SDS011;32779;52.264;6.154;2023-03-23T11:07:01;13.35;;;2.17;;
47021;SDS011;32779;52.264;6.154;2023-03-23T11:09:38;12.02;;;1.65;;
47021;SDS011;32779;52.264;6.154;2023-03-23T11:12:16;10.07;;;2.17;;
47021;SDS011;32779;52.264;6.154;2023-03-23T11:14:43;13.32;;;2.55;;
47021;SDS011;32779;52.264;6.154;2023-03-23T11:19:52;13.57;;;2.17;;
47021;SDS011;32779;52.264;6.154;2023-03-23T11:22:26;9.15;;;2.08;;
47021;SDS011;32779;52.264;6.154;2023-03-23T11:24:54;17.80;;;2.95;;
47021;SDS011;32779;52.264;6.154;2023-03-23T11:27:22;10.32;;;2.47;;
47021;SDS011;32779;52.264;6.154;2023-03-23T11:29:50;10.32;;;2.10;;
47021;SDS011;32779;52.264;6.154;2023-03-23T11:32:24;11.80;;;2.35;;
47021;SDS011;32779;52.264;6.154;2023-03-23T11:34:59;11.73;;;2.72;;
47021;SDS011;32779;52.264;6.154;2023-03-23T11:37:33;10.18;;;2.40;;
47021;SDS011;32779;52.264;6.154;2023-03-23T11:42:46;9.52;;;1.80;;
47021;SDS011;32779;52.264;6.154;2023-03-23T11:50:52;12.60;;;2.00;;
47021;SDS011;32779;52.264;6.154;2023-03-23T11:58:41;11.18;;;2.03;;
47021;SDS011;32779;52.264;6.154;2023-03-23T12:18:15;12.68;;;2.63;;
47021;SDS011;32779;52.264;6.154;2023-03-23T12:21:12;12.00;;;2.17;;
47021;SDS011;32779;52.264;6.154;2023-03-23T12:26:39;14.75;;;2.42;;
47021;SDS011;32779;52.264;6.154;2023-03-23T12:32:01;12.82;;;3.05;;
47021;SDS011;32779;52.264;6.154;2023-03-23T12:40:28;16.98;;;2.90;;
47021;SDS011;32779;52.264;6.154;2023-03-23T12:43:27;11.18;;;2.20;;
47021;SDS011;32779;52.264;6.154;2023-03-23T12:48:49;15.80;;;2.75;;
47021;SDS011;32779;52.264;6.154;2023-03-23T12:51:30;14.02;;;2.05;;
47021;SDS011;32779;52.264;6.154;2023-03-23T12:54:13;11.02;;;2.28;;
47021;SDS011;32779;52.264;6.154;2023-03-23T12:56:50;16.08;;;2.50;;
47021;SDS011;32779;52.264;6.154;2023-03-23T12:59:36;7.15;;;1.90;;
47021;SDS011;32779;52.264;6.154;2023-03-23T13:02:12;9.88;;;2.15;;
47021;SDS011;32779;52.264;6.154;2023-03-23T13:04:51;7.70;;;1.63;;
47021;SDS011;32779;52.264;6.154;2023-03-23T13:07:26;11.95;;;2.63;;
47021;SDS011;32779;52.264;6.154;2023-03-23T13:10:12;10.70;;;1.83;;
47021;SDS011;32779;52.264;6.154;2023-03-23T13:12:44;8.63;;;1.90;;
47021;SDS011;32779;52.264;6.154;2023-03-23T13:15:27;7.00;;;1.75;;
47021;SDS011;32779;52.264;6.154;2023-03-23T13:18:04;12.35;;;2.05;;
47021;SDS011;32779;52.264;6.154;2023-03-23T13:20:53;8.95;;;1.92;;
47021;SDS011;32779;52.264;6.154;2023-03-23T13:23:50;11.48;;;2.17;;
47021;SDS011;32779;52.264;6.154;2023-03-23T13:26:23;10.63;;;2.45;;
47021;SDS011;32779;52.264;6.154;2023-03-23T13:36:34;13.82;;;2.03;;
47021;SDS011;32779;52.264;6.154;2023-03-23T13:39:04;8.93;;;1.83;;
47021;SDS011;32779;52.264;6.154;2023-03-23T13:41:32;12.25;;;1.88;;
47021;SDS011;32779;52.264;6.154;2023-03-23T13:44:14;5.63;;;1.38;;
47021;SDS011;32779;52.264;6.154;2023-03-23T13:46:56;10.88;;;1.95;;
47021;SDS011;32779;52.264;6.154;2023-03-23T13:49:31;12.27;;;2.03;;
47021;SDS011;32779;52.264;6.154;2023-03-23T14:03:04;10.90;;;1.70;;
47021;SDS011;32779;52.264;6.154;2023-03-23T14:10:54;13.15;;;2.67;;
47021;SDS011;32779;52.264;6.154;2023-03-23T14:16:26;10.48;;;2.30;;
47021;SDS011;32779;52.264;6.154;2023-03-23T14:18:58;11.65;;;1.80;;
47021;SDS011;32779;52.264;6.154;2023-03-23T14:21:35;7.93;;;1.58;;
47021;SDS011;32779;52.264;6.154;2023-03-23T14:24:02;7.72;;;1.60;;
47021;SDS011;32779;52.264;6.154;2023-03-23T14:26:32;9.43;;;1.80;;
47021;SDS011;32779;52.264;6.154;2023-03-23T14:29:00;7.57;;;1.67;;
47021;SDS011;32779;52.264;6.154;2023-03-23T14:31:26;8.50;;;1.73;;
47021;SDS011;32779;52.264;6.154;2023-03-23T14:33:53;8.23;;;1.73;;
47021;SDS011;32779;52.264;6.154;2023-03-23T14:38:56;8.50;;;1.80;;
47021;SDS011;32779;52.264;6.154;2023-03-23T14:41:31;5.65;;;1.77;;
47021;SDS011;32779;52.264;6.154;2023-03-23T14:44:00;12.05;;;1.85;;
47021;SDS011;32779;52.264;6.154;2023-03-23T14:46:27;8.82;;;1.58;;
47021;SDS011;32779;52.264;6.154;2023-03-23T14:48:55;11.20;;;1.83;;
47021;SDS011;32779;52.264;6.154;2023-03-23T14:51:24;5.40;;;1.45;;
47021;SDS011;32779;52.264;6.154;2023-03-23T14:53:49;4.13;;;1.52;;
47021;SDS011;32779;52.264;6.154;2023-03-23T14:56:18;6.07;;;1.75;;
47021;SDS011;32779;52.264;6.154;2023-03-23T14:58:52;7.47;;;1.70;;
47021;SDS011;32779;52.264;6.154;2023-03-23T15:01:19;7.35;;;1.88;;
47021;SDS011;32779;52.264;6.154;2023-03-23T15:03:58;6.43;;;1.80;;
47021;SDS011;32779;52.264;6.154;2023-03-23T15:06:28;6.25;;;1.77;;
47021;SDS011;32779;52.264;6.154;2023-03-23T15:08:57;7.43;;;2.78;;
47021;SDS011;32779;52.264;6.154;2023-03-23T15:11:27;8.18;;;2.55;;
47021;SDS011;32779;52.264;6.154;2023-03-23T15:13:57;10.77;;;2.78;;
47021;SDS011;32779;52.264;6.154;2023-03-23T15:16:29;9.20;;;2.00;;
47021;SDS011;32779;52.264;6.154;2023-03-23T15:18:57;7.28;;;2.22;;
47021;SDS011;32779;52.264;6.154;2023-03-23T15:21:24;11.02;;;3.45;;
47021;SDS011;32779;52.264;6.154;2023-03-23T15:23:53;10.50;;;2.80;;
47021;SDS011;32779;52.264;6.154;2023-03-23T15:28:50;8.40;;;1.77;;
47021;SDS011;32779;52.264;6.154;2023-03-23T15:31:23;8.50;;;2.38;;
47021;SDS011;32779;52.264;6.154;2023-03-23T15:33:54;10.27;;;4.15;;
47021;SDS011;32779;52.264;6.154;2023-03-23T15:36:24;11.32;;;4.35;;
47021;SDS011;32779;52.264;6.154;2023-03-23T15:38:50;6.85;;;2.28;;
47021;SDS011;32779;52.264;6.154;2023-03-23T15:41:23;9.65;;;2.90;;
47021;SDS011;32779;52.264;6.154;2023-03-23T15:43:54;7.40;;;2.20;;
47021;SDS011;32779;52.264;6.154;2023-03-23T15:46:27;8.45;;;1.80;;
47021;SDS011;32779;52.264;6.154;2023-03-23T15:51:26;8.45;;;2.10;;
47021;SDS011;32779;52.264;6.154;2023-03-23T15:53:54;12.13;;;3.67;;
47021;SDS011;32779;52.264;6.154;2023-03-23T15:56:20;8.18;;;3.00;;
47021;SDS011;32779;52.264;6.154;2023-03-23T15:58:47;7.60;;;2.53;;
47021;SDS011;32779;52.264;6.154;2023-03-23T16:01:17;10.15;;;3.22;;
47021;SDS011;32779;52.264;6.154;2023-03-23T16:06:17;7.50;;;2.42;;
47021;SDS011;32779;52.264;6.154;2023-03-23T16:08:43;16.17;;;4.60;;
47021;SDS011;32779;52.264;6.154;2023-03-23T16:11:10;14.30;;;4.07;;
47021;SDS011;32779;52.264;6.154;2023-03-23T16:13:37;10.80;;;2.72;;
47021;SDS011;32779;52.264;6.154;2023-03-23T16:16:03;11.27;;;2.10;;
47021;SDS011;32779;52.264;6.154;2023-03-23T16:18:31;9.88;;;2.00;;
47021;SDS011;32779;52.264;6.154;2023-03-23T16:20:56;9.48;;;1.85;;
47021;SDS011;32779;52.264;6.154;2023-03-23T16:25:48;9.10;;;1.90;;
47021;SDS011;32779;52.264;6.154;2023-03-23T16:28:14;9.65;;;2.30;;
47021;SDS011;32779;52.264;6.154;2023-03-23T16:30:41;9.73;;;2.47;;
47021;SDS011;32779;52.264;6.154;2023-03-23T16:33:08;11.27;;;2.55;;
47021;SDS011;32779;52.264;6.154;2023-03-23T16:35:34;9.25;;;2.35;;
47021;SDS011;32779;52.264;6.154;2023-03-23T16:38:01;14.32;;;2.30;;
47021;SDS011;32779;52.264;6.154;2023-03-23T16:40:27;11.52;;;2.47;;
47021;SDS011;32779;52.264;6.154;2023-03-23T16:42:53;13.75;;;2.08;;
47021;SDS011;32779;52.264;6.154;2023-03-23T16:47:45;13.10;;;2.97;;
47021;SDS011;32779;52.264;6.154;2023-03-23T16:52:38;12.77;;;3.50;;
47021;SDS011;32779;52.264;6.154;2023-03-23T16:55:05;7.82;;;2.60;;
47021;SDS011;32779;52.264;6.154;2023-03-23T16:57:32;8.45;;;2.90;;
47021;SDS011;32779;52.264;6.154;2023-03-23T16:59:59;12.07;;;3.10;;
47021;SDS011;32779;52.264;6.154;2023-03-23T17:02:25;12.65;;;4.78;;
47021;SDS011;32779;52.264;6.154;2023-03-23T17:04:51;12.63;;;3.78;;
47021;SDS011;32779;52.264;6.154;2023-03-23T17:09:42;11.10;;;2.10;;
47021;SDS011;32779;52.264;6.154;2023-03-23T17:14:33;8.57;;;2.30;;
47021;SDS011;32779;52.264;6.154;2023-03-23T17:16:59;9.80;;;2.30;;
47021;SDS011;32779;52.264;6.154;2023-03-23T17:19:25;12.95;;;2.72;;
47021;SDS011;32779;52.264;6.154;2023-03-23T17:24:16;11.27;;;2.35;;
47021;SDS011;32779;52.264;6.154;2023-03-23T17:26:42;9.88;;;2.58;;
47021;SDS011;32779;52.264;6.154;2023-03-23T17:29:08;12.85;;;2.78;;
47021;SDS011;32779;52.264;6.154;2023-03-23T17:31:34;12.05;;;5.97;;
47021;SDS011;32779;52.264;6.154;2023-03-23T17:33:59;60.88;;;37.15;;
47021;SDS011;32779;52.264;6.154;2023-03-23T17:36:25;65.75;;;38.22;;
47021;SDS011;32779;52.264;6.154;2023-03-23T17:38:51;33.47;;;19.55;;
47021;SDS011;32779;52.264;6.154;2023-03-23T17:41:16;30.25;;;15.73;;
47021;SDS011;32779;52.264;6.154;2023-03-23T17:43:45;35.58;;;16.17;;
47021;SDS011;32779;52.264;6.154;2023-03-23T17:46:11;18.55;;;10.65;;
47021;SDS011;32779;52.264;6.154;2023-03-23T17:48:37;21.15;;;11.70;;
47021;SDS011;32779;52.264;6.154;2023-03-23T17:51:03;25.50;;;14.48;;
47021;SDS011;32779;52.264;6.154;2023-03-23T17:53:29;13.02;;;4.82;;